BAW391 EBBR-EGLL
Flight info
| Callsign | BAW391 |
|---|---|
| Flight time | N/A |
| Altitude | 24000 |
| Route | HELEN L179 COA L608 LOGAN |
| Aircraft | A320/M-SDE3FGHIJ1RWXY/S |
Departure
| Time | 2026-05-06 17:47 |
|---|---|
| Airport | Brussels Airport (EBBR) |
Arrival
| Time | N/A |
|---|---|
| Airport | London Heathrow Airport (EGLL) |
| Time | Latitude | Longitude | Altitude | Speed | Heading |
|---|---|---|---|---|---|
| 2026-05-06 17:10 | 50.90032 | 4.48993 | 146 ft | 0 kts | 335° |
| 2026-05-06 17:29 | 50.90027 | 4.48997 | 146 ft | 2 kts | 335° |
| 2026-05-06 17:29 | 50.90023 | 4.48999 | 145 ft | 0 kts | 335° |
| 2026-05-06 17:29 | 50.90021 | 4.48999 | 146 ft | 2 kts | 335° |
| 2026-05-06 17:29 | 50.90007 | 4.49010 | 146 ft | 2 kts | 335° |
| 2026-05-06 17:30 | 50.89992 | 4.49021 | 146 ft | 2 kts | 335° |
| 2026-05-06 17:30 | 50.89978 | 4.49032 | 146 ft | 2 kts | 341° |
| 2026-05-06 17:30 | 50.89963 | 4.49033 | 147 ft | 2 kts | 8° |
| 2026-05-06 17:30 | 50.89947 | 4.49029 | 147 ft | 2 kts | 8° |
| 2026-05-06 17:31 | 50.89932 | 4.49026 | 147 ft | 2 kts | 11° |
| 2026-05-06 17:31 | 50.89920 | 4.49017 | 147 ft | 0 kts | 57° |
| 2026-05-06 17:31 | 50.89927 | 4.49034 | 147 ft | 0 kts | 57° |
| 2026-05-06 17:37 | 50.89935 | 4.49053 | 119 ft | 0 kts | 57° |
| 2026-05-06 17:38 | 50.89947 | 4.49087 | 146 ft | 7 kts | 63° |
| 2026-05-06 17:38 | 50.89967 | 4.49198 | 145 ft | 13 kts | 83° |
| 2026-05-06 17:38 | 50.89924 | 4.49261 | 145 ft | 10 kts | 188° |
| 2026-05-06 17:38 | 50.89845 | 4.49228 | 147 ft | 13 kts | 197° |
| 2026-05-06 17:39 | 50.89736 | 4.49184 | 145 ft | 19 kts | 193° |
| 2026-05-06 17:39 | 50.89612 | 4.49166 | 144 ft | 19 kts | 168° |
| 2026-05-06 17:39 | 50.89577 | 4.49176 | 144 ft | 5 kts | 178° |
| 2026-05-06 17:39 | 50.89522 | 4.49159 | 144 ft | 12 kts | 194° |
| 2026-05-06 17:40 | 50.89421 | 4.49114 | 142 ft | 15 kts | 199° |
| 2026-05-06 17:40 | 50.89341 | 4.49019 | 143 ft | 16 kts | 230° |
| 2026-05-06 17:40 | 50.89279 | 4.48831 | 141 ft | 22 kts | 252° |
| 2026-05-06 17:40 | 50.89230 | 4.48601 | 143 ft | 21 kts | 252° |
| 2026-05-06 17:41 | 50.89186 | 4.48408 | 140 ft | 15 kts | 244° |
| 2026-05-06 17:41 | 50.89141 | 4.48244 | 139 ft | 11 kts | 249° |
| 2026-05-06 17:41 | 50.89131 | 4.48200 | 137 ft | 7 kts | 249° |
| 2026-05-06 17:41 | 50.89110 | 4.48116 | 136 ft | 0 kts | 249° |
| 2026-05-06 17:42 | 50.89110 | 4.48115 | 136 ft | 1 kts | 249° |
| 2026-05-06 17:42 | 50.89099 | 4.48065 | 135 ft | 6 kts | 252° |
| 2026-05-06 17:42 | 50.89096 | 4.48053 | 135 ft | 0 kts | 252° |
| 2026-05-06 17:43 | 50.89092 | 4.48034 | 135 ft | 5 kts | 252° |
| 2026-05-06 17:43 | 50.89078 | 4.47960 | 135 ft | 7 kts | 252° |
| 2026-05-06 17:43 | 50.89075 | 4.47950 | 135 ft | 0 kts | 249° |
| 2026-05-06 17:45 | 50.89068 | 4.47931 | 135 ft | 5 kts | 234° |
| 2026-05-06 17:46 | 50.89007 | 4.47906 | 128 ft | 14 kts | 173° |
| 2026-05-06 17:46 | 50.88934 | 4.48058 | 125 ft | 22 kts | 96° |
| 2026-05-06 17:46 | 50.88961 | 4.48285 | 125 ft | 22 kts | 69° |
| 2026-05-06 17:46 | 50.89021 | 4.48529 | 135 ft | 32 kts | 69° |
| 2026-05-06 17:47 | 50.89200 | 4.49291 | 142 ft | 113 kts | 70° |
| 2026-05-06 17:47 | 50.89534 | 4.50776 | 265 ft | 164 kts | 70° |
| 2026-05-06 17:47 | 50.89940 | 4.52534 | 1143 ft | 171 kts | 65° |
| 2026-05-06 17:47 | 50.90472 | 4.54257 | 1986 ft | 183 kts | 54° |
| 2026-05-06 17:48 | 50.91565 | 4.55378 | 2542 ft | 206 kts | 10° |
| 2026-05-06 17:48 | 50.93043 | 4.54900 | 3199 ft | 235 kts | 328° |
| 2026-05-06 17:48 | 50.94223 | 4.53051 | 4301 ft | 243 kts | 309° |
| 2026-05-06 17:48 | 50.95219 | 4.50749 | 5327 ft | 259 kts | 303° |
| 2026-05-06 17:49 | 50.96178 | 4.48287 | 6546 ft | 265 kts | 302° |
| 2026-05-06 17:49 | 50.96825 | 4.46625 | 7342 ft | 268 kts | 303° |
| 2026-05-06 17:49 | 50.98185 | 4.43273 | 8915 ft | 275 kts | 304° |
| 2026-05-06 17:49 | 50.98905 | 4.41579 | 9705 ft | 278 kts | 306° |
| 2026-05-06 17:50 | 51.00017 | 4.39040 | 10786 ft | 282 kts | 306° |
| 2026-05-06 17:50 | 51.01200 | 4.36400 | 11406 ft | 305 kts | 306° |
| 2026-05-06 17:50 | 51.02461 | 4.33623 | 12032 ft | 322 kts | 306° |
| 2026-05-06 17:50 | 51.03803 | 4.30679 | 12986 ft | 328 kts | 306° |
| 2026-05-06 17:51 | 51.05154 | 4.27717 | 13890 ft | 335 kts | 306° |
| 2026-05-06 17:51 | 51.06525 | 4.24704 | 14782 ft | 338 kts | 306° |
| 2026-05-06 17:51 | 51.07923 | 4.21629 | 15618 ft | 345 kts | 306° |
| 2026-05-06 17:51 | 51.09337 | 4.18518 | 16436 ft | 350 kts | 306° |
| 2026-05-06 17:52 | 51.10772 | 4.15353 | 17329 ft | 353 kts | 305° |
| 2026-05-06 17:52 | 51.12221 | 4.12148 | 18164 ft | 359 kts | 305° |
| 2026-05-06 17:52 | 51.13676 | 4.08921 | 18893 ft | 365 kts | 305° |
| 2026-05-06 17:52 | 51.15183 | 4.05573 | 19722 ft | 368 kts | 304° |
| 2026-05-06 17:53 | 51.16679 | 4.02240 | 20578 ft | 371 kts | 304° |
| 2026-05-06 17:53 | 51.18187 | 3.98878 | 21348 ft | 375 kts | 304° |
| 2026-05-06 17:53 | 51.19712 | 3.95471 | 22098 ft | 380 kts | 304° |
| 2026-05-06 17:53 | 51.21257 | 3.92023 | 22848 ft | 384 kts | 304° |
| 2026-05-06 17:54 | 51.22797 | 3.88517 | 23568 ft | 389 kts | 301° |
| 2026-05-06 17:54 | 51.24050 | 3.84682 | 23814 ft | 390 kts | 291° |
| 2026-05-06 17:54 | 51.24968 | 3.80616 | 23898 ft | 391 kts | 288° |
| 2026-05-06 17:54 | 51.25866 | 3.76514 | 23905 ft | 391 kts | 288° |
| 2026-05-06 17:55 | 51.26748 | 3.72470 | 23907 ft | 390 kts | 288° |
| 2026-05-06 17:55 | 51.27652 | 3.68332 | 23910 ft | 391 kts | 288° |
| 2026-05-06 17:55 | 51.28549 | 3.64240 | 23906 ft | 391 kts | 288° |
| 2026-05-06 17:55 | 51.29437 | 3.60192 | 23914 ft | 390 kts | 288° |
| 2026-05-06 17:56 | 51.30344 | 3.56049 | 23916 ft | 389 kts | 288° |
| 2026-05-06 17:56 | 51.31226 | 3.52012 | 23917 ft | 389 kts | 288° |
| 2026-05-06 17:56 | 51.32116 | 3.47930 | 23914 ft | 389 kts | 288° |
| 2026-05-06 17:56 | 51.33004 | 3.43839 | 23925 ft | 388 kts | 288° |
| 2026-05-06 17:57 | 51.33890 | 3.39759 | 23933 ft | 389 kts | 288° |
| 2026-05-06 17:57 | 51.34776 | 3.35667 | 23932 ft | 389 kts | 288° |
| 2026-05-06 17:57 | 51.35687 | 3.31594 | 23933 ft | 389 kts | 288° |
| 2026-05-06 17:57 | 51.36639 | 3.27541 | 23939 ft | 389 kts | 289° |
| 2026-05-06 17:58 | 51.37613 | 3.23501 | 23963 ft | 389 kts | 289° |
| 2026-05-06 17:58 | 51.38535 | 3.19701 | 23955 ft | 389 kts | 290° |
| 2026-05-06 17:58 | 51.39507 | 3.15667 | 23953 ft | 389 kts | 289° |
| 2026-05-06 17:58 | 51.40476 | 3.11611 | 23953 ft | 389 kts | 289° |
| 2026-05-06 17:59 | 51.41397 | 3.07733 | 23958 ft | 389 kts | 289° |
| 2026-05-06 17:59 | 51.41996 | 3.05198 | 23973 ft | 389 kts | 289° |
| 2026-05-06 17:59 | 51.42947 | 3.01161 | 23972 ft | 388 kts | 289° |
| 2026-05-06 17:59 | 51.43896 | 2.97116 | 23968 ft | 388 kts | 289° |
| 2026-05-06 18:00 | 51.44844 | 2.93064 | 23973 ft | 388 kts | 289° |
| 2026-05-06 18:00 | 51.45710 | 2.89356 | 23978 ft | 387 kts | 289° |
| 2026-05-06 18:00 | 51.46593 | 2.85568 | 23976 ft | 387 kts | 289° |
| 2026-05-06 18:00 | 51.47532 | 2.81520 | 23972 ft | 387 kts | 289° |
| 2026-05-06 18:01 | 51.48470 | 2.77464 | 23969 ft | 387 kts | 288° |
| 2026-05-06 18:01 | 51.49307 | 2.73848 | 23967 ft | 388 kts | 289° |
| 2026-05-06 18:01 | 51.50134 | 2.70285 | 23963 ft | 388 kts | 289° |
| 2026-05-06 18:01 | 51.50964 | 2.66705 | 23968 ft | 388 kts | 289° |
| 2026-05-06 18:02 | 51.51720 | 2.63437 | 23966 ft | 388 kts | 289° |
| 2026-05-06 18:02 | 51.52410 | 2.60441 | 23964 ft | 388 kts | 288° |
| 2026-05-06 18:02 | 51.53277 | 2.56666 | 23966 ft | 387 kts | 288° |
| 2026-05-06 18:02 | 51.54121 | 2.52992 | 23964 ft | 388 kts | 289° |
| 2026-05-06 18:03 | 51.55053 | 2.48930 | 23978 ft | 387 kts | 289° |
| 2026-05-06 18:03 | 51.55985 | 2.44863 | 23980 ft | 387 kts | 288° |
| 2026-05-06 18:03 | 51.56911 | 2.40811 | 23982 ft | 386 kts | 288° |
| 2026-05-06 18:03 | 51.57835 | 2.36762 | 23986 ft | 386 kts | 289° |
| 2026-05-06 18:04 | 51.58760 | 2.32702 | 23974 ft | 386 kts | 289° |
| 2026-05-06 18:04 | 51.59682 | 2.28644 | 23974 ft | 386 kts | 289° |
| 2026-05-06 18:04 | 51.60603 | 2.24585 | 23974 ft | 386 kts | 289° |
| 2026-05-06 18:04 | 51.61524 | 2.20522 | 23969 ft | 387 kts | 289° |
| 2026-05-06 18:05 | 51.62447 | 2.16451 | 23970 ft | 387 kts | 289° |
| 2026-05-06 18:05 | 51.63369 | 2.12380 | 23969 ft | 387 kts | 289° |
| 2026-05-06 18:05 | 51.64276 | 2.08363 | 23971 ft | 387 kts | 289° |
| 2026-05-06 18:05 | 51.65207 | 2.04229 | 23972 ft | 387 kts | 289° |
| 2026-05-06 18:06 | 51.66121 | 2.00153 | 23974 ft | 387 kts | 289° |
| 2026-05-06 18:06 | 51.67035 | 1.96069 | 23977 ft | 387 kts | 289° |
| 2026-05-06 18:06 | 51.67949 | 1.91983 | 23984 ft | 387 kts | 289° |
| 2026-05-06 18:06 | 51.68859 | 1.87901 | 23983 ft | 387 kts | 289° |
| 2026-05-06 18:07 | 51.69754 | 1.83867 | 23983 ft | 388 kts | 289° |
| 2026-05-06 18:07 | 51.70660 | 1.79774 | 23986 ft | 388 kts | 289° |
| 2026-05-06 18:07 | 51.71566 | 1.75674 | 23987 ft | 388 kts | 289° |
| 2026-05-06 18:07 | 51.72470 | 1.71583 | 23991 ft | 388 kts | 289° |
| 2026-05-06 18:08 | 51.73377 | 1.67474 | 23989 ft | 388 kts | 289° |
| 2026-05-06 18:08 | 51.74165 | 1.63314 | 23990 ft | 387 kts | 281° |
| 2026-05-06 18:08 | 51.74493 | 1.59012 | 23991 ft | 387 kts | 271° |
| 2026-05-06 18:08 | 51.74352 | 1.54692 | 23995 ft | 387 kts | 264° |
| 2026-05-06 18:09 | 51.74072 | 1.50376 | 23999 ft | 387 kts | 264° |
| 2026-05-06 18:09 | 51.73796 | 1.46059 | 24001 ft | 387 kts | 264° |
| 2026-05-06 18:09 | 51.73518 | 1.41741 | 24003 ft | 386 kts | 264° |
| 2026-05-06 18:09 | 51.73239 | 1.37442 | 24004 ft | 386 kts | 264° |
| 2026-05-06 18:10 | 51.72958 | 1.33133 | 24010 ft | 386 kts | 264° |
| 2026-05-06 18:10 | 51.72675 | 1.28840 | 24010 ft | 385 kts | 264° |
| 2026-05-06 18:10 | 51.72390 | 1.24543 | 24009 ft | 385 kts | 264° |
| 2026-05-06 18:10 | 51.72104 | 1.20244 | 24008 ft | 385 kts | 264° |
| 2026-05-06 18:11 | 51.71813 | 1.15940 | 24007 ft | 385 kts | 264° |
| 2026-05-06 18:11 | 51.71520 | 1.11649 | 24007 ft | 385 kts | 264° |
| 2026-05-06 18:11 | 51.71227 | 1.07363 | 24006 ft | 385 kts | 264° |
| 2026-05-06 18:11 | 51.70933 | 1.03064 | 24005 ft | 385 kts | 264° |
| 2026-05-06 18:12 | 51.70640 | 0.98764 | 24003 ft | 385 kts | 264° |
| 2026-05-06 18:12 | 51.70350 | 0.94477 | 24007 ft | 385 kts | 264° |
| 2026-05-06 18:12 | 51.70057 | 0.90183 | 24020 ft | 384 kts | 264° |
| 2026-05-06 18:12 | 51.69765 | 0.85968 | 24022 ft | 384 kts | 264° |
| 2026-05-06 18:13 | 51.69461 | 0.81637 | 24020 ft | 384 kts | 264° |
| 2026-05-06 18:13 | 51.69163 | 0.77426 | 24021 ft | 383 kts | 263° |
| 2026-05-06 18:13 | 51.68853 | 0.73093 | 24021 ft | 383 kts | 263° |
| 2026-05-06 18:13 | 51.68554 | 0.68885 | 24021 ft | 383 kts | 263° |
| 2026-05-06 18:14 | 51.68251 | 0.64618 | 24023 ft | 383 kts | 263° |
| 2026-05-06 18:14 | 51.67949 | 0.60366 | 24017 ft | 376 kts | 263° |
| 2026-05-06 18:14 | 51.67655 | 0.56275 | 23913 ft | 357 kts | 263° |
| 2026-05-06 18:14 | 51.67374 | 0.52429 | 23469 ft | 338 kts | 263° |
| 2026-05-06 18:15 | 51.67100 | 0.48704 | 22634 ft | 331 kts | 263° |
| 2026-05-06 18:15 | 51.66834 | 0.45102 | 21771 ft | 326 kts | 264° |
| 2026-05-06 18:15 | 51.66568 | 0.41474 | 20908 ft | 322 kts | 264° |
| 2026-05-06 18:15 | 51.66307 | 0.37907 | 20077 ft | 319 kts | 264° |
| 2026-05-06 18:16 | 51.66048 | 0.34384 | 19277 ft | 315 kts | 264° |
| 2026-05-06 18:16 | 51.65787 | 0.30883 | 18502 ft | 312 kts | 264° |
| 2026-05-06 18:16 | 51.65535 | 0.27566 | 18116 ft | 311 kts | 264° |
| 2026-05-06 18:16 | 51.65261 | 0.23968 | 17976 ft | 311 kts | 264° |
| 2026-05-06 18:17 | 51.65012 | 0.20661 | 17989 ft | 285 kts | 264° |
| 2026-05-06 18:17 | 51.64778 | 0.17551 | 18003 ft | 278 kts | 264° |
| 2026-05-06 18:17 | 51.64548 | 0.14473 | 18002 ft | 279 kts | 264° |
| 2026-05-06 18:17 | 51.64309 | 0.11218 | 18018 ft | 309 kts | 264° |
| 2026-05-06 18:18 | 51.64048 | 0.07652 | 18001 ft | 332 kts | 264° |
| 2026-05-06 18:18 | 51.63776 | 0.03894 | 17996 ft | 339 kts | 264° |
| 2026-05-06 18:18 | 51.63504 | 0.00110 | 17999 ft | 341 kts | 264° |
| 2026-05-06 18:18 | 51.63235 | -0.03630 | 18041 ft | 341 kts | 264° |
| 2026-05-06 18:19 | 51.62963 | -0.07431 | 18045 ft | 341 kts | 264° |
| 2026-05-06 18:19 | 51.62695 | -0.11160 | 18051 ft | 341 kts | 264° |
| 2026-05-06 18:19 | 51.62421 | -0.14964 | 18049 ft | 341 kts | 264° |
| 2026-05-06 18:19 | 51.62146 | -0.18773 | 18058 ft | 342 kts | 264° |
| 2026-05-06 18:20 | 51.61872 | -0.22561 | 18058 ft | 342 kts | 264° |
| 2026-05-06 18:20 | 51.61595 | -0.26367 | 18054 ft | 342 kts | 264° |
| 2026-05-06 18:20 | 51.61317 | -0.30179 | 18056 ft | 342 kts | 264° |
| 2026-05-06 18:20 | 51.61043 | -0.33930 | 17996 ft | 342 kts | 264° |
| 2026-05-06 18:21 | 51.60763 | -0.37753 | 17258 ft | 348 kts | 264° |
| 2026-05-06 18:21 | 51.60475 | -0.41644 | 16274 ft | 353 kts | 264° |
| 2026-05-06 18:21 | 51.60176 | -0.45597 | 15324 ft | 357 kts | 264° |
| 2026-05-06 18:21 | 51.59869 | -0.49586 | 14402 ft | 360 kts | 264° |
| 2026-05-06 18:22 | 51.59553 | -0.53595 | 13464 ft | 362 kts | 264° |
| 2026-05-06 18:22 | 51.59235 | -0.57614 | 12476 ft | 362 kts | 264° |
| 2026-05-06 18:22 | 51.58918 | -0.61623 | 11521 ft | 361 kts | 264° |
| 2026-05-06 18:22 | 51.58598 | -0.65629 | 10590 ft | 360 kts | 264° |
| 2026-05-06 18:23 | 51.58280 | -0.69578 | 9674 ft | 359 kts | 264° |
| 2026-05-06 18:23 | 51.57951 | -0.73594 | 8671 ft | 357 kts | 264° |
| 2026-05-06 18:23 | 51.57632 | -0.77530 | 7713 ft | 354 kts | 264° |
| 2026-05-06 18:23 | 51.57326 | -0.81391 | 6788 ft | 348 kts | 264° |
| 2026-05-06 18:24 | 51.57036 | -0.85129 | 5834 ft | 327 kts | 264° |
| 2026-05-06 18:24 | 51.56749 | -0.88654 | 4879 ft | 312 kts | 264° |
| 2026-05-06 18:24 | 51.56185 | -0.91918 | 4236 ft | 296 kts | 243° |
| 2026-05-06 18:24 | 51.54888 | -0.94264 | 4058 ft | 272 kts | 215° |
| 2026-05-06 18:25 | 51.53130 | -0.95296 | 4003 ft | 271 kts | 185° |
| 2026-05-06 18:25 | 51.51283 | -0.94866 | 4008 ft | 270 kts | 156° |
| 2026-05-06 18:25 | 51.49791 | -0.93104 | 4011 ft | 268 kts | 128° |
| 2026-05-06 18:25 | 51.48673 | -0.90702 | 4012 ft | 269 kts | 125° |
| 2026-05-06 18:26 | 51.47778 | -0.88088 | 4010 ft | 267 kts | 106° |
| 2026-05-06 18:26 | 51.47532 | -0.85172 | 4011 ft | 263 kts | 87° |
| 2026-05-06 18:26 | 51.47554 | -0.82239 | 4010 ft | 263 kts | 87° |
| 2026-05-06 18:26 | 51.47583 | -0.79305 | 3892 ft | 262 kts | 88° |
| 2026-05-06 18:27 | 51.47602 | -0.76402 | 3568 ft | 259 kts | 87° |
| 2026-05-06 18:27 | 51.47620 | -0.73515 | 3223 ft | 257 kts | 86° |
| 2026-05-06 18:27 | 51.47637 | -0.70694 | 2876 ft | 255 kts | 88° |
| 2026-05-06 18:27 | 51.47653 | -0.67817 | 2516 ft | 254 kts | 87° |
| 2026-05-06 18:28 | 51.47669 | -0.65028 | 2175 ft | 251 kts | 87° |
| 2026-05-06 18:28 | 51.47684 | -0.62237 | 1834 ft | 249 kts | 86° |
| 2026-05-06 18:28 | 51.47698 | -0.59477 | 1490 ft | 246 kts | 88° |
| 2026-05-06 18:28 | 51.47711 | -0.56755 | 1148 ft | 243 kts | 86° |
| 2026-05-06 18:29 | 51.47724 | -0.54054 | 815 ft | 240 kts | 86° |
| 2026-05-06 18:29 | 51.47736 | -0.51398 | 489 ft | 234 kts | 88° |
| 2026-05-06 18:29 | 51.47747 | -0.48824 | 181 ft | 228 kts | 88° |
| 2026-05-06 18:29 | 51.47732 | -0.46391 | 251 ft | 206 kts | 89° |